Airfield :
LOGIN :

Register | Disclaimer

   EN    FR    IT 

 










Legend :    VFR   Marginal VFR   IFR   Intensive IFR   Very Intensive IFR
Visi :
Ceiling :
>= 8 km
>= 3000ft
5 to 8 km
1000 to 3000 ft
1500m to 5 km
500 to 1000 ft
800 to 1500m
200 to 500 ft
< 800m
< 200 ft
Symbols :   Thunderstorms  Fog  Heavy snow  Heavy precipitations  Wind > 20 kt
SIGMETs :     Misc.  Thunderstorms  Icing  Turbulence  Mountain Waves  Volcanic Ashes







- Airport Elevation : 138 ft
- IATA code : BIO


LEBB - Bilbao

CURRENT METAR :
  • 181830Z 32007KT 6000 SCT007 BKN015 BKN022 17/17 Q1017 TEMPO BKN018

EXPIRED METARs :
  • 181800Z 32006KT 5000 BR SCT007 BKN014 17/17 Q1016 TEMPO BKN018
  • 181730Z 32006KT 4500 BR SCT005 BKN014 BKN022 17/17 Q1016 TEMPO 5000 BR BKN015
  • 181700Z 32006KT 4500 BR SCT005 BKN012 BKN020 17/17 Q1016 TEMPO 5000 BR BKN015
  • 181630Z 30005KT 3500 BR SCT005 BKN015 18/17 Q1016 TEMPO 5000 BR BKN015
  • 181600Z 30006KT 280V340 3900 BR SCT005 BKN032 18/17 Q1016 TEMPO 5000 BR BKN015

TAF TAF LEBB
Valid from the 18 at 18:00 until the 19 at 18:00 UTC


181700Z 1818/1918 30005KT 8000 SCT010 BKN020 TX19/1914Z TN15/1906Z
PROB40
TEMPO 1818/1915 3000 -RADZ BR BKN005 BKN010
PROB40
TEMPO 1818/1918 BKN014
No reported NOTAMs for that airfield.
4 SIGMETs reported for the Madrid FIR (LECM) :
 
Severe turbulence
LECM SIGMET 17 VALID 181900/182200 LEVA
LECM MADRID FIR/UIR SEV TURB OBS AT 1853Z E OF LINE N36 W00450 - N3820 W00230 FL200/340 MOV NE NC=
Embedded thunderstorms
LECM SIGMET 16 VALID 181800/182000 LEVA
LECM MADRID FIR/UIR EMBD TS OBS AT 1750Z W OF LINE N3920 W00540 - N3750 W00610 TOP FL320 MOV W 20KT NC=
Embedded thunderstorms
LECM SIGMET 13 VALID 181619/182800 LEVA
LECM MADRID FIR/UIR EMBD TS OBS AT 1619Z WI N3930 W007 - N3950 W00310 - N3830 W003 - N3810 W007 - N3930 W007 TOP FL320 MOV ESE 20KT NC=
Severe turbulence
LECM SIGMET 12 VALID 181500/181900 LEVA
LECM MADRID FIR/UIR SEV TURB OBS AT 1452Z S OF LINE N3630 W00720 - N3710 W00150 FL200/320 MOV E 20KT NC=



MET'MAP, your aeronautical weather chart ! - Copyright ORBIFLY December 2007 - Disclaimer

ORBIFLY MET'MAP TEAM :

Programming & Development : Alexandra Zaïnal
Concept & Development : Baudouin d'Aumeries
Co-Development & Prog : Marc-Olivier Méhu
Technical & hardware support : Manuel Goepfert

Contact : metmap@orbifly.com




SOURCES & CREDITS :

   NOAA